General Aviation Weather

Text Reports

Enter one or more of the following location identifiers separated by a space:

Zip Code, Four-Character ICAO or Three-Character IATA airport codes.

METAR - Aviation Routine Weather Report
KRPH - Graham, Texas
Updated at 7:35 AM GMT on September 16, 2014 (2:35 AM CDT):
METAR KRPH 160735Z AUTO 00000KT 10SM SCT110 23/19 A3012 RMK AO2 T02320188
TAF - Terminal Area Forecast
KRPH - Graham, Texas
Updated at 7:35 AM GMT on September 16, 2014 (2:35 AM CDT):
No TAF is currently available for this location.
Decoded:
No decoded TAF is available.
PIREP - Pilot Weather Report
KRPH - Graham, Texas
Updated at 7:35 AM GMT on September 16, 2014 (2:35 AM CDT):
No PIREP is currently available for this location.
AIRMET - Airmens Meteorological Information
KRPH - Graham, Texas
Updated at 7:35 AM GMT on September 16, 2014 (2:35 AM CDT):
No AIRMET is currently available for this location.
SIGMET - Significant Meteorological Information
KRPH - Graham, Texas
Updated at 7:35 AM GMT on September 16, 2014 (2:35 AM CDT):
No SIGMET is currently available for this location.
NOTAM - Notice to Airmen
KRPH - Graham, Texas
Updated at 7:35 AM GMT on September 16, 2014 (2:35 AM CDT):
No NOTAM is currently available for this location.
Forecast Area
KRPH - Graham, Texas
Updated at 7:35 AM GMT on September 16, 2014 (2:35 AM CDT):
No NOTAM is currently available for this location.
Aviation Weather Maps